sensor_id;sensor_type;location;lat;lon;timestamp;P1;durP1;ratioP1;P2;durP2;ratioP2
6344;SDS011;3205;42.666;23.264;2023-12-04T00:02:00;9.67;;;5.10;;
6344;SDS011;3205;42.666;23.264;2023-12-04T00:04:26;7.40;;;5.47;;
6344;SDS011;3205;42.666;23.264;2023-12-04T00:06:52;8.87;;;5.70;;
6344;SDS011;3205;42.666;23.264;2023-12-04T00:09:18;10.93;;;5.60;;
6344;SDS011;3205;42.666;23.264;2023-12-04T00:11:45;11.80;;;5.63;;
6344;SDS011;3205;42.666;23.264;2023-12-04T00:14:11;8.30;;;5.47;;
6344;SDS011;3205;42.666;23.264;2023-12-04T00:16:37;9.70;;;5.67;;
6344;SDS011;3205;42.666;23.264;2023-12-04T00:19:04;8.13;;;5.70;;
6344;SDS011;3205;42.666;23.264;2023-12-04T00:21:30;9.57;;;6.00;;
6344;SDS011;3205;42.666;23.264;2023-12-04T00:23:57;9.43;;;5.57;;
6344;SDS011;3205;42.666;23.264;2023-12-04T00:26:23;10.97;;;5.43;;
6344;SDS011;3205;42.666;23.264;2023-12-04T00:28:49;8.53;;;5.80;;
6344;SDS011;3205;42.666;23.264;2023-12-04T00:31:15;8.10;;;5.30;;
6344;SDS011;3205;42.666;23.264;2023-12-04T00:33:42;8.40;;;5.43;;
6344;SDS011;3205;42.666;23.264;2023-12-04T00:36:09;10.50;;;6.33;;
6344;SDS011;3205;42.666;23.264;2023-12-04T00:38:36;8.40;;;5.33;;
6344;SDS011;3205;42.666;23.264;2023-12-04T00:41:02;10.07;;;5.13;;
6344;SDS011;3205;42.666;23.264;2023-12-04T00:43:29;8.00;;;5.13;;
6344;SDS011;3205;42.666;23.264;2023-12-04T00:45:55;8.53;;;5.47;;
6344;SDS011;3205;42.666;23.264;2023-12-04T00:48:21;9.03;;;5.23;;
6344;SDS011;3205;42.666;23.264;2023-12-04T00:50:47;6.93;;;5.70;;
6344;SDS011;3205;42.666;23.264;2023-12-04T00:53:14;10.57;;;6.90;;
6344;SDS011;3205;42.666;23.264;2023-12-04T00:55:41;10.83;;;6.20;;
6344;SDS011;3205;42.666;23.264;2023-12-04T00:58:07;10.60;;;6.53;;
6344;SDS011;3205;42.666;23.264;2023-12-04T01:00:33;9.43;;;5.57;;
6344;SDS011;3205;42.666;23.264;2023-12-04T01:02:59;9.10;;;5.73;;
6344;SDS011;3205;42.666;23.264;2023-12-04T01:05:26;11.80;;;6.23;;
6344;SDS011;3205;42.666;23.264;2023-12-04T01:07:52;7.83;;;5.30;;
6344;SDS011;3205;42.666;23.264;2023-12-04T01:10:19;10.53;;;6.43;;
6344;SDS011;3205;42.666;23.264;2023-12-04T01:12:45;10.13;;;6.03;;
6344;SDS011;3205;42.666;23.264;2023-12-04T01:15:12;8.40;;;5.73;;
6344;SDS011;3205;42.666;23.264;2023-12-04T01:17:38;11.40;;;6.33;;
6344;SDS011;3205;42.666;23.264;2023-12-04T01:20:05;9.53;;;6.90;;
6344;SDS011;3205;42.666;23.264;2023-12-04T01:22:31;11.20;;;6.07;;
6344;SDS011;3205;42.666;23.264;2023-12-04T01:24:58;10.00;;;6.43;;
6344;SDS011;3205;42.666;23.264;2023-12-04T01:27:25;9.17;;;6.10;;
6344;SDS011;3205;42.666;23.264;2023-12-04T01:29:51;11.00;;;5.80;;
6344;SDS011;3205;42.666;23.264;2023-12-04T01:32:18;11.23;;;6.93;;
6344;SDS011;3205;42.666;23.264;2023-12-04T01:34:44;12.77;;;7.30;;
6344;SDS011;3205;42.666;23.264;2023-12-04T01:37:10;10.93;;;6.67;;
6344;SDS011;3205;42.666;23.264;2023-12-04T01:39:37;10.60;;;6.23;;
6344;SDS011;3205;42.666;23.264;2023-12-04T01:42:03;11.37;;;6.40;;
6344;SDS011;3205;42.666;23.264;2023-12-04T01:44:30;10.20;;;6.07;;
6344;SDS011;3205;42.666;23.264;2023-12-04T01:46:57;10.83;;;6.43;;
6344;SDS011;3205;42.666;23.264;2023-12-04T01:49:23;10.40;;;6.47;;
6344;SDS011;3205;42.666;23.264;2023-12-04T01:51:49;12.33;;;6.70;;
6344;SDS011;3205;42.666;23.264;2023-12-04T01:54:16;10.57;;;6.13;;
6344;SDS011;3205;42.666;23.264;2023-12-04T01:56:43;10.30;;;6.13;;
6344;SDS011;3205;42.666;23.264;2023-12-04T01:59:10;8.23;;;5.70;;
6344;SDS011;3205;42.666;23.264;2023-12-04T02:01:37;9.77;;;5.87;;
6344;SDS011;3205;42.666;23.264;2023-12-04T02:04:04;10.87;;;6.17;;
6344;SDS011;3205;42.666;23.264;2023-12-04T02:06:34;8.30;;;6.20;;
6344;SDS011;3205;42.666;23.264;2023-12-04T02:09:00;9.63;;;6.50;;
6344;SDS011;3205;42.666;23.264;2023-12-04T02:11:27;10.70;;;6.00;;
6344;SDS011;3205;42.666;23.264;2023-12-04T02:13:53;9.67;;;5.60;;
6344;SDS011;3205;42.666;23.264;2023-12-04T02:16:21;8.83;;;5.50;;
6344;SDS011;3205;42.666;23.264;2023-12-04T02:18:52;8.93;;;6.10;;
6344;SDS011;3205;42.666;23.264;2023-12-04T02:21:18;9.93;;;6.67;;
6344;SDS011;3205;42.666;23.264;2023-12-04T02:23:48;9.70;;;6.00;;
6344;SDS011;3205;42.666;23.264;2023-12-04T02:26:15;9.87;;;5.53;;
6344;SDS011;3205;42.666;23.264;2023-12-04T02:28:45;9.00;;;5.87;;
6344;SDS011;3205;42.666;23.264;2023-12-04T02:31:16;10.23;;;5.93;;
6344;SDS011;3205;42.666;23.264;2023-12-04T02:33:44;7.87;;;5.67;;
6344;SDS011;3205;42.666;23.264;2023-12-04T02:36:12;10.47;;;5.90;;
6344;SDS011;3205;42.666;23.264;2023-12-04T02:38:39;8.67;;;5.30;;
6344;SDS011;3205;42.666;23.264;2023-12-04T02:41:07;7.03;;;5.33;;
6344;SDS011;3205;42.666;23.264;2023-12-04T02:43:34;10.17;;;5.70;;
6344;SDS011;3205;42.666;23.264;2023-12-04T02:46:00;8.93;;;5.47;;
6344;SDS011;3205;42.666;23.264;2023-12-04T02:48:26;8.73;;;5.67;;
6344;SDS011;3205;42.666;23.264;2023-12-04T02:50:52;9.77;;;5.60;;
6344;SDS011;3205;42.666;23.264;2023-12-04T02:53:19;10.33;;;6.23;;
6344;SDS011;3205;42.666;23.264;2023-12-04T02:55:45;8.37;;;5.40;;
6344;SDS011;3205;42.666;23.264;2023-12-04T02:58:16;7.27;;;5.30;;
6344;SDS011;3205;42.666;23.264;2023-12-04T03:00:42;8.80;;;5.63;;
6344;SDS011;3205;42.666;23.264;2023-12-04T03:03:08;12.10;;;5.40;;
6344;SDS011;3205;42.666;23.264;2023-12-04T03:05:34;9.37;;;5.53;;
6344;SDS011;3205;42.666;23.264;2023-12-04T03:08:01;11.40;;;6.17;;
6344;SDS011;3205;42.666;23.264;2023-12-04T03:10:27;8.67;;;5.80;;
6344;SDS011;3205;42.666;23.264;2023-12-04T03:12:53;8.47;;;5.70;;
6344;SDS011;3205;42.666;23.264;2023-12-04T03:15:20;9.43;;;5.73;;
6344;SDS011;3205;42.666;23.264;2023-12-04T03:17:46;9.67;;;5.77;;
6344;SDS011;3205;42.666;23.264;2023-12-04T03:20:13;7.97;;;5.00;;
6344;SDS011;3205;42.666;23.264;2023-12-04T03:22:39;7.67;;;5.53;;
6344;SDS011;3205;42.666;23.264;2023-12-04T03:25:05;13.47;;;5.30;;
6344;SDS011;3205;42.666;23.264;2023-12-04T03:27:32;8.27;;;5.30;;
6344;SDS011;3205;42.666;23.264;2023-12-04T03:29:58;13.20;;;6.03;;
6344;SDS011;3205;42.666;23.264;2023-12-04T03:32:25;7.70;;;5.33;;
6344;SDS011;3205;42.666;23.264;2023-12-04T03:34:51;8.20;;;5.00;;
6344;SDS011;3205;42.666;23.264;2023-12-04T03:37:18;8.13;;;5.63;;
6344;SDS011;3205;42.666;23.264;2023-12-04T03:39:44;10.07;;;5.80;;
6344;SDS011;3205;42.666;23.264;2023-12-04T03:42:10;12.20;;;5.93;;
6344;SDS011;3205;42.666;23.264;2023-12-04T03:44:36;8.77;;;5.80;;
6344;SDS011;3205;42.666;23.264;2023-12-04T03:47:03;9.17;;;6.13;;
6344;SDS011;3205;42.666;23.264;2023-12-04T03:49:30;10.93;;;6.63;;
6344;SDS011;3205;42.666;23.264;2023-12-04T03:51:56;10.07;;;6.57;;
6344;SDS011;3205;42.666;23.264;2023-12-04T03:54:22;8.07;;;5.83;;
6344;SDS011;3205;42.666;23.264;2023-12-04T03:56:48;9.17;;;5.83;;
6344;SDS011;3205;42.666;23.264;2023-12-04T03:59:14;8.10;;;5.97;;
6344;SDS011;3205;42.666;23.264;2023-12-04T04:01:41;9.40;;;6.03;;
6344;SDS011;3205;42.666;23.264;2023-12-04T04:04:07;10.37;;;6.57;;
6344;SDS011;3205;42.666;23.264;2023-12-04T04:06:34;11.50;;;6.67;;
6344;SDS011;3205;42.666;23.264;2023-12-04T04:09:00;8.53;;;5.63;;
6344;SDS011;3205;42.666;23.264;2023-12-04T04:11:26;8.97;;;6.10;;
6344;SDS011;3205;42.666;23.264;2023-12-04T04:13:53;10.27;;;6.50;;
6344;SDS011;3205;42.666;23.264;2023-12-04T04:16:19;8.23;;;5.60;;
6344;SDS011;3205;42.666;23.264;2023-12-04T04:18:45;10.90;;;6.37;;
6344;SDS011;3205;42.666;23.264;2023-12-04T04:21:11;10.67;;;6.30;;
6344;SDS011;3205;42.666;23.264;2023-12-04T04:23:38;8.83;;;6.20;;
6344;SDS011;3205;42.666;23.264;2023-12-04T04:26:04;12.10;;;6.20;;
6344;SDS011;3205;42.666;23.264;2023-12-04T04:28:31;10.37;;;6.07;;
6344;SDS011;3205;42.666;23.264;2023-12-04T04:30:58;9.63;;;6.10;;
6344;SDS011;3205;42.666;23.264;2023-12-04T04:33:24;8.60;;;5.47;;
6344;SDS011;3205;42.666;23.264;2023-12-04T04:35:50;8.07;;;4.93;;
6344;SDS011;3205;42.666;23.264;2023-12-04T04:38:16;12.20;;;6.00;;
6344;SDS011;3205;42.666;23.264;2023-12-04T04:40:43;8.13;;;5.00;;
6344;SDS011;3205;42.666;23.264;2023-12-04T04:43:10;8.97;;;5.87;;
6344;SDS011;3205;42.666;23.264;2023-12-04T04:45:36;7.13;;;4.67;;
6344;SDS011;3205;42.666;23.264;2023-12-04T04:48:03;8.57;;;5.63;;
6344;SDS011;3205;42.666;23.264;2023-12-04T04:50:29;10.53;;;5.67;;
6344;SDS011;3205;42.666;23.264;2023-12-04T04:52:55;12.00;;;7.10;;
6344;SDS011;3205;42.666;23.264;2023-12-04T04:55:22;16.43;;;6.70;;
6344;SDS011;3205;42.666;23.264;2023-12-04T04:57:48;16.17;;;6.97;;
6344;SDS011;3205;42.666;23.264;2023-12-04T05:00:15;20.60;;;7.40;;
6344;SDS011;3205;42.666;23.264;2023-12-04T05:02:43;18.73;;;8.20;;
6344;SDS011;3205;42.666;23.264;2023-12-04T05:05:09;15.37;;;7.10;;
6344;SDS011;3205;42.666;23.264;2023-12-04T05:07:35;16.83;;;6.87;;
6344;SDS011;3205;42.666;23.264;2023-12-04T05:10:01;12.97;;;6.50;;
6344;SDS011;3205;42.666;23.264;2023-12-04T05:12:28;12.27;;;6.53;;
6344;SDS011;3205;42.666;23.264;2023-12-04T05:14:55;16.03;;;7.40;;
6344;SDS011;3205;42.666;23.264;2023-12-04T05:17:21;9.43;;;6.37;;
6344;SDS011;3205;42.666;23.264;2023-12-04T05:19:47;11.77;;;7.33;;
6344;SDS011;3205;42.666;23.264;2023-12-04T05:22:13;12.43;;;7.13;;
6344;SDS011;3205;42.666;23.264;2023-12-04T05:24:40;12.20;;;7.33;;
6344;SDS011;3205;42.666;23.264;2023-12-04T05:27:06;13.90;;;7.10;;
6344;SDS011;3205;42.666;23.264;2023-12-04T05:29:32;11.97;;;7.23;;
6344;SDS011;3205;42.666;23.264;2023-12-04T05:32:05;13.63;;;7.70;;
6344;SDS011;3205;42.666;23.264;2023-12-04T05:34:32;16.60;;;8.20;;
6344;SDS011;3205;42.666;23.264;2023-12-04T05:36:58;15.90;;;8.43;;
6344;SDS011;3205;42.666;23.264;2023-12-04T05:39:24;15.40;;;8.00;;
6344;SDS011;3205;42.666;23.264;2023-12-04T05:41:51;13.73;;;8.63;;
6344;SDS011;3205;42.666;23.264;2023-12-04T05:44:17;13.50;;;8.20;;
6344;SDS011;3205;42.666;23.264;2023-12-04T05:46:43;14.73;;;7.53;;
6344;SDS011;3205;42.666;23.264;2023-12-04T05:49:10;40.03;;;17.53;;
6344;SDS011;3205;42.666;23.264;2023-12-04T05:51:36;16.37;;;8.60;;
6344;SDS011;3205;42.666;23.264;2023-12-04T05:54:02;15.43;;;9.23;;
6344;SDS011;3205;42.666;23.264;2023-12-04T05:56:29;18.07;;;8.90;;
6344;SDS011;3205;42.666;23.264;2023-12-04T05:58:55;14.53;;;8.90;;
6344;SDS011;3205;42.666;23.264;2023-12-04T06:01:22;21.50;;;11.17;;
6344;SDS011;3205;42.666;23.264;2023-12-04T06:03:49;15.10;;;8.83;;
6344;SDS011;3205;42.666;23.264;2023-12-04T06:06:16;14.57;;;8.97;;
6344;SDS011;3205;42.666;23.264;2023-12-04T06:08:42;14.43;;;9.00;;
6344;SDS011;3205;42.666;23.264;2023-12-04T06:11:08;19.27;;;8.97;;
6344;SDS011;3205;42.666;23.264;2023-12-04T06:13:35;15.43;;;8.87;;
6344;SDS011;3205;42.666;23.264;2023-12-04T06:16:01;20.37;;;8.77;;
6344;SDS011;3205;42.666;23.264;2023-12-04T06:18:27;22.70;;;9.90;;
6344;SDS011;3205;42.666;23.264;2023-12-04T06:20:54;16.00;;;8.47;;
6344;SDS011;3205;42.666;23.264;2023-12-04T06:23:21;22.53;;;8.67;;
6344;SDS011;3205;42.666;23.264;2023-12-04T06:25:48;19.70;;;9.77;;
6344;SDS011;3205;42.666;23.264;2023-12-04T06:28:14;17.33;;;9.33;;
6344;SDS011;3205;42.666;23.264;2023-12-04T06:30:41;18.20;;;10.37;;
6344;SDS011;3205;42.666;23.264;2023-12-04T06:33:08;18.50;;;9.80;;
6344;SDS011;3205;42.666;23.264;2023-12-04T06:35:35;18.07;;;9.57;;
6344;SDS011;3205;42.666;23.264;2023-12-04T06:38:03;20.87;;;10.20;;
6344;SDS011;3205;42.666;23.264;2023-12-04T06:40:33;16.83;;;10.10;;
6344;SDS011;3205;42.666;23.264;2023-12-04T06:43:00;17.17;;;9.77;;
6344;SDS011;3205;42.666;23.264;2023-12-04T06:45:27;17.43;;;10.73;;
6344;SDS011;3205;42.666;23.264;2023-12-04T06:47:54;17.50;;;9.97;;
6344;SDS011;3205;42.666;23.264;2023-12-04T06:50:22;14.67;;;7.80;;
6344;SDS011;3205;42.666;23.264;2023-12-04T06:52:48;12.10;;;7.97;;
6344;SDS011;3205;42.666;23.264;2023-12-04T06:55:14;15.90;;;8.83;;
6344;SDS011;3205;42.666;23.264;2023-12-04T06:57:41;14.97;;;8.30;;
6344;SDS011;3205;42.666;23.264;2023-12-04T07:00:08;13.67;;;7.13;;
6344;SDS011;3205;42.666;23.264;2023-12-04T07:02:37;10.47;;;6.37;;
6344;SDS011;3205;42.666;23.264;2023-12-04T07:05:04;12.43;;;6.63;;
6344;SDS011;3205;42.666;23.264;2023-12-04T07:07:31;12.17;;;6.87;;
6344;SDS011;3205;42.666;23.264;2023-12-04T07:09:57;9.70;;;6.53;;
6344;SDS011;3205;42.666;23.264;2023-12-04T07:12:24;12.90;;;6.17;;
6344;SDS011;3205;42.666;23.264;2023-12-04T07:14:51;10.40;;;6.00;;
6344;SDS011;3205;42.666;23.264;2023-12-04T07:17:17;16.03;;;6.53;;
6344;SDS011;3205;42.666;23.264;2023-12-04T07:19:44;11.73;;;6.93;;
6344;SDS011;3205;42.666;23.264;2023-12-04T07:22:10;9.83;;;5.87;;
6344;SDS011;3205;42.666;23.264;2023-12-04T07:24:36;7.57;;;5.90;;
6344;SDS011;3205;42.666;23.264;2023-12-04T07:27:03;7.87;;;5.67;;
6344;SDS011;3205;42.666;23.264;2023-12-04T07:29:30;8.37;;;6.17;;
6344;SDS011;3205;42.666;23.264;2023-12-04T07:31:57;16.03;;;6.73;;
6344;SDS011;3205;42.666;23.264;2023-12-04T07:34:24;9.23;;;5.80;;
6344;SDS011;3205;42.666;23.264;2023-12-04T07:36:50;7.43;;;5.93;;
6344;SDS011;3205;42.666;23.264;2023-12-04T07:39:17;7.47;;;5.97;;
6344;SDS011;3205;42.666;23.264;2023-12-04T07:41:43;8.63;;;6.67;;
6344;SDS011;3205;42.666;23.264;2023-12-04T07:44:09;7.07;;;5.90;;
6344;SDS011;3205;42.666;23.264;2023-12-04T07:46:35;9.90;;;6.10;;
6344;SDS011;3205;42.666;23.264;2023-12-04T07:49:02;7.50;;;6.33;;
6344;SDS011;3205;42.666;23.264;2023-12-04T07:51:29;9.20;;;6.83;;
6344;SDS011;3205;42.666;23.264;2023-12-04T07:53:55;9.73;;;6.20;;
6344;SDS011;3205;42.666;23.264;2023-12-04T07:56:21;8.23;;;5.50;;
6344;SDS011;3205;42.666;23.264;2023-12-04T07:58:48;7.97;;;5.40;;
6344;SDS011;3205;42.666;23.264;2023-12-04T08:01:14;6.07;;;5.07;;
6344;SDS011;3205;42.666;23.264;2023-12-04T08:03:41;11.40;;;5.53;;
6344;SDS011;3205;42.666;23.264;2023-12-04T08:06:08;5.70;;;5.10;;
6344;SDS011;3205;42.666;23.264;2023-12-04T08:08:34;6.93;;;5.70;;
6344;SDS011;3205;42.666;23.264;2023-12-04T08:11:00;8.10;;;6.23;;
6344;SDS011;3205;42.666;23.264;2023-12-04T08:13:26;6.03;;;5.20;;
6344;SDS011;3205;42.666;23.264;2023-12-04T08:15:53;5.77;;;4.70;;
6344;SDS011;3205;42.666;23.264;2023-12-04T08:18:19;5.27;;;4.23;;
6344;SDS011;3205;42.666;23.264;2023-12-04T08:20:45;7.53;;;4.93;;
6344;SDS011;3205;42.666;23.264;2023-12-04T08:23:12;6.23;;;4.40;;
6344;SDS011;3205;42.666;23.264;2023-12-04T08:25:38;5.23;;;4.33;;
6344;SDS011;3205;42.666;23.264;2023-12-04T08:28:05;6.70;;;4.67;;
6344;SDS011;3205;42.666;23.264;2023-12-04T08:30:31;7.23;;;5.13;;
6344;SDS011;3205;42.666;23.264;2023-12-04T08:32:57;7.33;;;4.67;;
6344;SDS011;3205;42.666;23.264;2023-12-04T08:35:23;4.43;;;4.00;;
6344;SDS011;3205;42.666;23.264;2023-12-04T08:37:50;4.43;;;4.03;;
6344;SDS011;3205;42.666;23.264;2023-12-04T08:40:17;4.60;;;3.60;;
6344;SDS011;3205;42.666;23.264;2023-12-04T08:42:43;4.53;;;3.23;;
6344;SDS011;3205;42.666;23.264;2023-12-04T08:45:10;4.77;;;3.87;;
6344;SDS011;3205;42.666;23.264;2023-12-04T08:47:36;7.30;;;4.43;;
6344;SDS011;3205;42.666;23.264;2023-12-04T08:50:03;6.00;;;4.20;;
6344;SDS011;3205;42.666;23.264;2023-12-04T08:52:30;7.67;;;4.87;;
6344;SDS011;3205;42.666;23.264;2023-12-04T08:54:56;4.87;;;3.60;;
6344;SDS011;3205;42.666;23.264;2023-12-04T08:57:23;7.00;;;4.17;;
6344;SDS011;3205;42.666;23.264;2023-12-04T08:59:49;8.63;;;4.27;;
6344;SDS011;3205;42.666;23.264;2023-12-04T09:02:15;4.73;;;3.83;;
6344;SDS011;3205;42.666;23.264;2023-12-04T09:04:42;4.63;;;3.90;;
6344;SDS011;3205;42.666;23.264;2023-12-04T09:07:08;4.17;;;3.60;;
6344;SDS011;3205;42.666;23.264;2023-12-04T09:09:34;6.53;;;3.70;;
6344;SDS011;3205;42.666;23.264;2023-12-04T09:12:00;4.70;;;4.20;;
6344;SDS011;3205;42.666;23.264;2023-12-04T09:14:27;4.20;;;3.80;;
6344;SDS011;3205;42.666;23.264;2023-12-04T09:16:54;5.33;;;3.83;;
6344;SDS011;3205;42.666;23.264;2023-12-04T09:19:20;4.00;;;3.53;;
6344;SDS011;3205;42.666;23.264;2023-12-04T09:21:47;5.03;;;3.63;;
6344;SDS011;3205;42.666;23.264;2023-12-04T09:24:13;4.37;;;3.87;;
6344;SDS011;3205;42.666;23.264;2023-12-04T09:26:39;4.83;;;3.87;;
6344;SDS011;3205;42.666;23.264;2023-12-04T09:29:05;6.97;;;3.90;;
6344;SDS011;3205;42.666;23.264;2023-12-04T09:31:32;3.97;;;3.53;;
6344;SDS011;3205;42.666;23.264;2023-12-04T09:33:58;6.03;;;3.83;;
6344;SDS011;3205;42.666;23.264;2023-12-04T09:36:25;5.37;;;4.13;;
6344;SDS011;3205;42.666;23.264;2023-12-04T09:38:51;6.40;;;3.67;;
6344;SDS011;3205;42.666;23.264;2023-12-04T09:41:17;4.37;;;3.67;;
6344;SDS011;3205;42.666;23.264;2023-12-04T09:43:44;6.27;;;3.73;;
6344;SDS011;3205;42.666;23.264;2023-12-04T09:46:11;6.63;;;3.90;;
6344;SDS011;3205;42.666;23.264;2023-12-04T09:48:39;6.03;;;4.07;;
6344;SDS011;3205;42.666;23.264;2023-12-04T09:51:08;4.20;;;3.80;;
6344;SDS011;3205;42.666;23.264;2023-12-04T09:53:34;5.70;;;4.20;;
6344;SDS011;3205;42.666;23.264;2023-12-04T09:56:02;6.83;;;4.03;;
6344;SDS011;3205;42.666;23.264;2023-12-04T09:58:30;4.93;;;3.80;;
6344;SDS011;3205;42.666;23.264;2023-12-04T10:00:58;6.40;;;4.03;;
6344;SDS011;3205;42.666;23.264;2023-12-04T10:03:25;6.07;;;4.07;;
6344;SDS011;3205;42.666;23.264;2023-12-04T10:05:53;7.60;;;3.93;;
6344;SDS011;3205;42.666;23.264;2023-12-04T10:08:20;10.07;;;4.00;;
6344;SDS011;3205;42.666;23.264;2023-12-04T10:10:47;3.97;;;3.57;;
6344;SDS011;3205;42.666;23.264;2023-12-04T10:13:13;6.13;;;4.17;;
6344;SDS011;3205;42.666;23.264;2023-12-04T10:15:45;8.00;;;3.80;;
6344;SDS011;3205;42.666;23.264;2023-12-04T10:18:20;6.03;;;3.83;;
6344;SDS011;3205;42.666;23.264;2023-12-04T10:20:51;5.67;;;4.13;;
6344;SDS011;3205;42.666;23.264;2023-12-04T10:23:19;4.50;;;4.00;;
6344;SDS011;3205;42.666;23.264;2023-12-04T10:25:45;8.50;;;4.70;;
6344;SDS011;3205;42.666;23.264;2023-12-04T10:28:15;6.60;;;4.27;;
6344;SDS011;3205;42.666;23.264;2023-12-04T10:30:41;6.60;;;4.13;;
6344;SDS011;3205;42.666;23.264;2023-12-04T10:33:08;5.07;;;4.03;;
6344;SDS011;3205;42.666;23.264;2023-12-04T10:35:35;5.77;;;3.60;;
6344;SDS011;3205;42.666;23.264;2023-12-04T10:38:02;6.20;;;4.23;;
6344;SDS011;3205;42.666;23.264;2023-12-04T10:40:30;5.93;;;4.07;;
6344;SDS011;3205;42.666;23.264;2023-12-04T10:43:14;5.17;;;3.57;;
6344;SDS011;3205;42.666;23.264;2023-12-04T10:45:42;5.50;;;3.80;;
6344;SDS011;3205;42.666;23.264;2023-12-04T10:48:09;5.40;;;3.70;;
6344;SDS011;3205;42.666;23.264;2023-12-04T10:50:36;6.90;;;3.43;;
6344;SDS011;3205;42.666;23.264;2023-12-04T10:53:03;5.63;;;4.33;;
6344;SDS011;3205;42.666;23.264;2023-12-04T10:55:30;4.47;;;3.60;;
6344;SDS011;3205;42.666;23.264;2023-12-04T10:57:57;5.20;;;3.83;;
6344;SDS011;3205;42.666;23.264;2023-12-04T11:00:25;6.37;;;4.10;;
6344;SDS011;3205;42.666;23.264;2023-12-04T11:02:55;7.83;;;3.87;;
6344;SDS011;3205;42.666;23.264;2023-12-04T11:05:23;7.37;;;4.43;;
6344;SDS011;3205;42.666;23.264;2023-12-04T11:07:50;6.43;;;3.67;;
6344;SDS011;3205;42.666;23.264;2023-12-04T11:10:19;5.03;;;3.60;;
6344;SDS011;3205;42.666;23.264;2023-12-04T11:12:48;4.53;;;3.67;;
6344;SDS011;3205;42.666;23.264;2023-12-04T11:15:22;5.73;;;3.50;;
6344;SDS011;3205;42.666;23.264;2023-12-04T11:17:51;10.43;;;4.67;;
6344;SDS011;3205;42.666;23.264;2023-12-04T11:20:24;6.63;;;4.20;;
6344;SDS011;3205;42.666;23.264;2023-12-04T11:22:55;8.37;;;4.40;;
6344;SDS011;3205;42.666;23.264;2023-12-04T11:25:22;9.27;;;4.43;;
6344;SDS011;3205;42.666;23.264;2023-12-04T11:27:50;6.57;;;4.23;;
6344;SDS011;3205;42.666;23.264;2023-12-04T11:30:18;6.50;;;4.43;;
6344;SDS011;3205;42.666;23.264;2023-12-04T11:32:44;5.07;;;4.10;;
6344;SDS011;3205;42.666;23.264;2023-12-04T11:35:15;7.97;;;3.87;;
6344;SDS011;3205;42.666;23.264;2023-12-04T11:37:43;5.87;;;4.23;;
6344;SDS011;3205;42.666;23.264;2023-12-04T11:40:11;6.17;;;3.53;;
6344;SDS011;3205;42.666;23.264;2023-12-04T11:42:39;6.70;;;4.27;;
6344;SDS011;3205;42.666;23.264;2023-12-04T11:45:06;8.00;;;4.60;;
6344;SDS011;3205;42.666;23.264;2023-12-04T11:47:48;7.27;;;4.70;;
6344;SDS011;3205;42.666;23.264;2023-12-04T11:50:15;12.90;;;4.97;;
6344;SDS011;3205;42.666;23.264;2023-12-04T11:52:41;8.53;;;5.37;;
6344;SDS011;3205;42.666;23.264;2023-12-04T11:55:07;9.07;;;5.60;;
6344;SDS011;3205;42.666;23.264;2023-12-04T11:57:34;8.63;;;5.17;;
6344;SDS011;3205;42.666;23.264;2023-12-04T12:00:08;9.63;;;5.30;;
6344;SDS011;3205;42.666;23.264;2023-12-04T12:02:37;8.40;;;5.80;;
6344;SDS011;3205;42.666;23.264;2023-12-04T12:05:04;8.67;;;4.77;;
6344;SDS011;3205;42.666;23.264;2023-12-04T12:07:31;10.10;;;5.03;;
6344;SDS011;3205;42.666;23.264;2023-12-04T12:09:57;9.10;;;5.90;;
6344;SDS011;3205;42.666;23.264;2023-12-04T12:12:24;9.90;;;5.70;;
6344;SDS011;3205;42.666;23.264;2023-12-04T12:14:52;13.57;;;7.37;;
6344;SDS011;3205;42.666;23.264;2023-12-04T12:17:19;9.63;;;6.27;;
6344;SDS011;3205;42.666;23.264;2023-12-04T12:19:45;10.20;;;5.67;;
6344;SDS011;3205;42.666;23.264;2023-12-04T12:22:11;9.57;;;6.03;;
6344;SDS011;3205;42.666;23.264;2023-12-04T12:24:38;12.97;;;6.93;;
6344;SDS011;3205;42.666;23.264;2023-12-04T12:27:05;8.47;;;6.47;;
6344;SDS011;3205;42.666;23.264;2023-12-04T12:29:31;10.70;;;6.10;;
6344;SDS011;3205;42.666;23.264;2023-12-04T12:31:57;14.67;;;6.20;;
6344;SDS011;3205;42.666;23.264;2023-12-04T12:34:24;9.17;;;4.43;;
6344;SDS011;3205;42.666;23.264;2023-12-04T12:36:52;9.97;;;5.07;;
6344;SDS011;3205;42.666;23.264;2023-12-04T12:39:19;10.80;;;5.40;;
6344;SDS011;3205;42.666;23.264;2023-12-04T12:41:47;10.30;;;5.90;;
6344;SDS011;3205;42.666;23.264;2023-12-04T12:44:13;11.37;;;5.90;;
6344;SDS011;3205;42.666;23.264;2023-12-04T12:46:40;11.27;;;6.37;;
6344;SDS011;3205;42.666;23.264;2023-12-04T12:49:06;10.17;;;5.93;;
6344;SDS011;3205;42.666;23.264;2023-12-04T12:51:33;13.27;;;6.23;;
6344;SDS011;3205;42.666;23.264;2023-12-04T12:53:59;11.70;;;6.00;;
6344;SDS011;3205;42.666;23.264;2023-12-04T12:56:26;13.53;;;5.73;;
6344;SDS011;3205;42.666;23.264;2023-12-04T12:58:52;11.63;;;6.00;;
6344;SDS011;3205;42.666;23.264;2023-12-04T13:01:19;8.93;;;5.70;;
6344;SDS011;3205;42.666;23.264;2023-12-04T13:03:50;10.90;;;5.87;;
6344;SDS011;3205;42.666;23.264;2023-12-04T13:06:16;9.07;;;6.00;;
6344;SDS011;3205;42.666;23.264;2023-12-04T13:08:44;14.77;;;6.07;;
6344;SDS011;3205;42.666;23.264;2023-12-04T13:11:10;15.60;;;6.13;;
6344;SDS011;3205;42.666;23.264;2023-12-04T13:13:36;22.73;;;6.57;;
6344;SDS011;3205;42.666;23.264;2023-12-04T13:16:02;12.47;;;6.43;;
6344;SDS011;3205;42.666;23.264;2023-12-04T13:18:29;11.57;;;6.30;;
6344;SDS011;3205;42.666;23.264;2023-12-04T13:20:57;10.67;;;6.10;;
6344;SDS011;3205;42.666;23.264;2023-12-04T13:23:23;12.33;;;6.10;;
6344;SDS011;3205;42.666;23.264;2023-12-04T13:25:50;11.43;;;6.13;;
6344;SDS011;3205;42.666;23.264;2023-12-04T13:28:16;11.17;;;7.40;;
6344;SDS011;3205;42.666;23.264;2023-12-04T13:30:42;12.73;;;8.23;;
6344;SDS011;3205;42.666;23.264;2023-12-04T13:33:09;20.83;;;7.90;;
6344;SDS011;3205;42.666;23.264;2023-12-04T13:35:35;15.23;;;7.60;;
6344;SDS011;3205;42.666;23.264;2023-12-04T13:38:01;18.47;;;8.93;;
6344;SDS011;3205;42.666;23.264;2023-12-04T13:40:28;14.93;;;8.30;;
6344;SDS011;3205;42.666;23.264;2023-12-04T13:42:58;17.97;;;8.03;;
6344;SDS011;3205;42.666;23.264;2023-12-04T13:45:43;20.90;;;9.47;;
6344;SDS011;3205;42.666;23.264;2023-12-04T13:48:09;17.67;;;9.33;;
6344;SDS011;3205;42.666;23.264;2023-12-04T13:50:35;19.23;;;8.83;;
6344;SDS011;3205;42.666;23.264;2023-12-04T13:53:02;14.60;;;8.37;;
6344;SDS011;3205;42.666;23.264;2023-12-04T13:55:30;20.07;;;10.67;;
6344;SDS011;3205;42.666;23.264;2023-12-04T13:58:11;22.67;;;10.80;;
6344;SDS011;3205;42.666;23.264;2023-12-04T14:00:58;19.20;;;10.03;;
6344;SDS011;3205;42.666;23.264;2023-12-04T14:03:28;20.37;;;9.57;;
6344;SDS011;3205;42.666;23.264;2023-12-04T14:05:54;16.07;;;8.80;;
6344;SDS011;3205;42.666;23.264;2023-12-04T14:08:20;21.07;;;9.87;;
6344;SDS011;3205;42.666;23.264;2023-12-04T14:10:47;20.83;;;9.57;;
6344;SDS011;3205;42.666;23.264;2023-12-04T14:13:14;22.40;;;10.53;;
6344;SDS011;3205;42.666;23.264;2023-12-04T14:15:40;25.87;;;12.43;;
6344;SDS011;3205;42.666;23.264;2023-12-04T14:18:06;26.40;;;12.80;;
6344;SDS011;3205;42.666;23.264;2023-12-04T14:20:32;22.43;;;12.47;;
6344;SDS011;3205;42.666;23.264;2023-12-04T14:22:59;35.10;;;15.17;;
6344;SDS011;3205;42.666;23.264;2023-12-04T14:25:25;32.50;;;14.50;;
6344;SDS011;3205;42.666;23.264;2023-12-04T14:27:51;26.70;;;12.77;;
6344;SDS011;3205;42.666;23.264;2023-12-04T14:30:18;29.77;;;12.10;;
6344;SDS011;3205;42.666;23.264;2023-12-04T14:32:44;27.83;;;11.67;;
6344;SDS011;3205;42.666;23.264;2023-12-04T14:35:11;25.17;;;11.03;;
6344;SDS011;3205;42.666;23.264;2023-12-04T14:37:38;25.43;;;10.90;;
6344;SDS011;3205;42.666;23.264;2023-12-04T14:40:05;25.67;;;12.23;;
6344;SDS011;3205;42.666;23.264;2023-12-04T14:42:32;36.77;;;12.53;;
6344;SDS011;3205;42.666;23.264;2023-12-04T14:44:59;26.40;;;12.23;;
6344;SDS011;3205;42.666;23.264;2023-12-04T14:47:26;29.03;;;14.97;;
6344;SDS011;3205;42.666;23.264;2023-12-04T14:49:52;32.30;;;13.67;;
6344;SDS011;3205;42.666;23.264;2023-12-04T14:52:20;27.93;;;13.03;;